createdAt,value
2023-03-19T00:03:49.870Z,52.11
2023-03-19T00:08:52.652Z,52.34
2023-03-19T00:14:04.913Z,52.30
2023-03-19T00:19:08.769Z,52.19
2023-03-19T00:24:26.217Z,52.15
2023-03-19T00:29:28.410Z,52.20
2023-03-19T00:34:35.415Z,52.26
2023-03-19T00:39:51.002Z,52.48
2023-03-19T00:44:54.848Z,52.58
2023-03-19T00:50:08.479Z,52.68
2023-03-19T00:55:32.867Z,52.87
2023-03-19T01:00:38.926Z,53.06
2023-03-19T01:05:41.591Z,53.10
2023-03-19T01:10:47.892Z,53.28
2023-03-19T01:15:58.004Z,53.32
2023-03-19T01:21:08.321Z,53.43
2023-03-19T01:26:18.721Z,53.67
2023-03-19T01:31:23.840Z,53.70
2023-03-19T01:36:42.530Z,53.87
2023-03-19T01:41:44.933Z,54.12
2023-03-19T01:47:35.903Z,54.13
2023-03-19T01:53:04.880Z,54.34
2023-03-19T01:58:28.829Z,54.63
2023-03-19T02:04:07.281Z,54.81
2023-03-19T02:09:14.911Z,55.09
2023-03-19T02:14:31.088Z,55.11
2023-03-19T02:19:50.537Z,55.30
2023-03-19T02:25:03.508Z,55.65
2023-03-19T02:30:31.990Z,55.81
2023-03-19T02:35:38.874Z,56.22
2023-03-19T02:41:10.557Z,56.32
2023-03-19T02:46:35.981Z,56.67
2023-03-19T02:51:51.193Z,57.22
2023-03-19T02:56:57.148Z,57.53
2023-03-19T03:02:19.280Z,57.91
2023-03-19T03:07:43.544Z,58.20
2023-03-19T03:12:46.616Z,58.73
2023-03-19T03:17:49.381Z,58.86
2023-03-19T03:23:05.344Z,58.68
2023-03-19T03:28:08.998Z,59.13
2023-03-19T03:33:16.814Z,59.94
2023-03-19T03:38:23.645Z,60.33
2023-03-19T03:43:26.359Z,60.60
2023-03-19T03:48:30.053Z,61.11
2023-03-19T03:53:34.189Z,61.38
2023-03-19T03:58:41.700Z,63.34
2023-03-19T04:03:45.591Z,65.82
2023-03-19T04:08:48.997Z,66.65
2023-03-19T04:13:52.340Z,66.93
2023-03-19T04:18:56.168Z,66.77
2023-03-19T04:23:59.576Z,66.63
2023-03-19T04:29:03.343Z,66.45
2023-03-19T04:34:06.513Z,66.32
2023-03-19T04:39:10.251Z,66.12
2023-03-19T04:44:15.543Z,66.05
2023-03-19T04:49:19.398Z,66.00
2023-03-19T04:54:22.870Z,66.19
2023-03-19T04:59:26.185Z,66.31
2023-03-19T05:04:30.355Z,66.46
2023-03-19T05:09:37.366Z,66.27
2023-03-19T05:14:40.747Z,66.74
2023-03-19T05:19:48.914Z,66.93
2023-03-19T05:24:52.791Z,67.05
2023-03-19T05:30:01.528Z,67.04
2023-03-19T05:35:23.127Z,66.66
2023-03-19T05:40:25.864Z,64.75
2023-03-19T05:45:32.403Z,65.37
2023-03-19T05:50:47.574Z,66.45
2023-03-19T05:55:55.521Z,65.83
2023-03-19T06:00:58.974Z,65.56
2023-03-19T06:06:06.033Z,65.95
2023-03-19T06:11:12.887Z,65.93
2023-03-19T06:16:15.629Z,65.73
2023-03-19T06:21:30.573Z,65.21
2023-03-19T06:26:37.372Z,65.41
2023-03-19T06:31:46.185Z,64.89
2023-03-19T06:37:02.172Z,64.70
2023-03-19T06:42:05.044Z,64.18
2023-03-19T06:47:16.430Z,63.57
2023-03-19T06:52:18.819Z,62.41
2023-03-19T06:57:30.621Z,61.18
2023-03-19T07:02:33.904Z,59.73
2023-03-19T07:07:45.444Z,57.58
2023-03-19T07:12:47.988Z,57.41
2023-03-19T07:17:53.949Z,58.16
2023-03-19T07:23:01.503Z,58.71
2023-03-19T07:28:05.225Z,58.65
2023-03-19T07:33:08.407Z,58.42
2023-03-19T07:38:10.680Z,58.43
2023-03-19T07:43:12.876Z,58.90
2023-03-19T07:48:16.413Z,58.64
2023-03-19T07:53:20.664Z,58.61
2023-03-19T07:58:45.350Z,58.28
2023-03-19T08:03:52.996Z,57.71
2023-03-19T08:08:58.522Z,57.52
2023-03-19T08:14:04.118Z,56.81
2023-03-19T08:19:09.876Z,55.88
2023-03-19T08:24:15.501Z,56.48
2023-03-19T08:29:34.425Z,55.63
2023-03-19T08:34:39.386Z,55.11
2023-03-19T08:39:41.838Z,52.79
2023-03-19T08:44:44.719Z,52.57
2023-03-19T08:49:51.962Z,52.68
2023-03-19T08:54:54.980Z,51.28
2023-03-19T08:59:57.330Z,51.09
2023-03-19T09:05:01.310Z,49.96
2023-03-19T09:10:05.892Z,49.05
2023-03-19T09:15:12.705Z,48.92
2023-03-19T09:20:23.211Z,48.92
2023-03-19T09:25:59.418Z,48.34
2023-03-19T09:31:07.254Z,46.92
2023-03-19T09:36:12.302Z,46.41
2023-03-19T09:41:26.931Z,45.66
2023-03-19T09:46:51.525Z,45.51
2023-03-19T09:52:21.244Z,46.01
2023-03-19T09:57:24.635Z,45.89
2023-03-19T10:02:43.377Z,44.76
2023-03-19T10:08:11.528Z,44.55
2023-03-19T10:13:40.402Z,44.27
2023-03-19T10:18:48.040Z,42.94
2023-03-19T10:23:57.956Z,43.15
2023-03-19T10:29:30.680Z,42.12
2023-03-19T10:34:37.802Z,43.00
2023-03-19T10:39:45.958Z,41.85
2023-03-19T10:45:05.866Z,40.76
2023-03-19T10:50:18.347Z,41.52
2023-03-19T10:55:29.737Z,41.29
2023-03-19T11:00:35.589Z,42.15
2023-03-19T11:05:38.573Z,42.23
2023-03-19T11:10:47.432Z,40.24
2023-03-19T11:15:53.329Z,40.69
2023-03-19T11:21:09.288Z,40.38
2023-03-19T11:26:19.913Z,39.14
2023-03-19T11:31:38.002Z,38.89
2023-03-19T11:37:05.866Z,40.07
2023-03-19T11:42:42.963Z,39.56
2023-03-19T11:48:27.237Z,38.42
2023-03-19T11:53:54.176Z,38.87
2023-03-19T11:59:14.713Z,39.30
2023-03-19T12:04:41.240Z,38.50
2023-03-19T12:10:27.288Z,38.41
2023-03-19T12:15:42.864Z,37.30
2023-03-19T12:21:07.421Z,38.37
2023-03-19T12:26:32.372Z,38.18
2023-03-19T12:31:47.644Z,37.53
2023-03-19T12:36:57.736Z,37.59
2023-03-19T12:42:03.702Z,37.63
2023-03-19T12:47:15.382Z,37.47
2023-03-19T12:52:29.771Z,37.42
2023-03-19T12:57:51.992Z,36.60
2023-03-19T13:03:19.503Z,36.64
2023-03-19T13:08:44.594Z,35.95
2023-03-19T13:14:01.584Z,35.97
2023-03-19T13:19:20.177Z,36.13
2023-03-19T13:24:35.090Z,36.26
2023-03-19T13:29:39.042Z,36.76
2023-03-19T13:34:41.731Z,36.30
2023-03-19T13:39:48.675Z,36.69
2023-03-19T13:44:58.124Z,36.05
2023-03-19T13:50:18.596Z,36.18
2023-03-19T13:55:46.503Z,36.87
2023-03-19T14:01:00.436Z,36.78
2023-03-19T14:06:04.755Z,36.69
2023-03-19T14:11:08.073Z,37.00
2023-03-19T14:16:26.360Z,37.48
2023-03-19T14:21:46.568Z,36.91
2023-03-19T14:26:50.013Z,37.39
2023-03-19T14:31:56.347Z,37.25
2023-03-19T14:37:26.222Z,37.38
2023-03-19T14:42:40.389Z,37.16
2023-03-19T14:48:02.532Z,37.32
2023-03-19T14:53:15.078Z,37.09
2023-03-19T14:58:21.047Z,37.11
2023-03-19T15:03:33.221Z,37.03
2023-03-19T15:08:39.687Z,36.91
2023-03-19T15:14:05.355Z,36.64
2023-03-19T15:19:12.237Z,37.08
2023-03-19T15:24:17.302Z,37.23
2023-03-19T15:29:32.316Z,37.53
2023-03-19T15:34:37.465Z,37.74
2023-03-19T15:39:51.802Z,37.94
2023-03-19T15:45:14.314Z,38.16
2023-03-19T15:50:21.125Z,38.49
2023-03-19T15:55:27.561Z,38.58
2023-03-19T16:00:36.661Z,38.88
2023-03-19T16:05:42.121Z,38.99
2023-03-19T16:10:46.040Z,39.39
2023-03-19T16:15:54.007Z,39.41
2023-03-19T16:21:15.122Z,39.92
2023-03-19T16:26:21.631Z,40.33
2023-03-19T16:31:28.969Z,40.73
2023-03-19T16:36:36.675Z,41.08
2023-03-19T16:41:38.896Z,41.21
2023-03-19T16:46:41.731Z,41.68
2023-03-19T16:51:47.712Z,42.29
2023-03-19T16:56:51.058Z,42.80
2023-03-19T17:01:54.035Z,43.04
2023-03-19T17:07:00.118Z,43.38
2023-03-19T17:12:13.152Z,43.91
2023-03-19T17:17:30.028Z,44.59
2023-03-19T17:22:33.079Z,45.40
2023-03-19T17:27:36.868Z,46.06
2023-03-19T17:32:46.648Z,46.09
2023-03-19T17:37:52.418Z,46.34
2023-03-19T17:42:56.273Z,46.47
2023-03-19T17:47:59.048Z,47.08
2023-03-19T17:53:06.930Z,47.46
2023-03-19T17:58:15.961Z,47.72
2023-03-19T18:03:31.767Z,48.76
2023-03-19T18:08:43.924Z,49.55
2023-03-19T18:13:49.408Z,50.05
2023-03-19T18:18:52.872Z,49.96
2023-03-19T18:23:58.626Z,50.72
2023-03-19T18:29:17.117Z,50.75
2023-03-19T18:34:19.843Z,50.54
2023-03-19T18:39:22.357Z,50.85
2023-03-19T18:44:25.645Z,51.24
2023-03-19T18:49:29.015Z,51.44
2023-03-19T18:54:37.284Z,51.70
2023-03-19T18:59:42.674Z,52.09
2023-03-19T19:04:45.885Z,52.79
2023-03-19T19:09:51.237Z,53.95
2023-03-19T19:14:54.072Z,55.04
2023-03-19T19:19:57.027Z,55.13
2023-03-19T19:25:00.138Z,55.11
2023-03-19T19:30:06.661Z,55.12
2023-03-19T19:35:24.044Z,55.24
2023-03-19T19:40:33.467Z,55.38
2023-03-19T19:45:37.999Z,55.41
2023-03-19T19:50:42.904Z,55.34
2023-03-19T19:55:46.441Z,55.60
2023-03-19T20:01:02.860Z,55.88
2023-03-19T20:06:09.622Z,56.13
2023-03-19T20:11:23.492Z,55.98
2023-03-19T20:16:29.662Z,55.93
2023-03-19T20:21:32.914Z,56.38
2023-03-19T20:26:54.928Z,56.32
2023-03-19T20:31:58.352Z,56.56
2023-03-19T20:37:02.383Z,56.08
2023-03-19T20:42:05.895Z,56.76
2023-03-19T20:47:17.645Z,56.48
2023-03-19T20:52:22.836Z,56.83
2023-03-19T20:57:29.358Z,56.87
2023-03-19T21:02:31.823Z,57.25
2023-03-19T21:07:35.524Z,57.58
2023-03-19T21:12:38.324Z,57.92
2023-03-19T21:17:41.265Z,58.34
2023-03-19T21:22:45.318Z,58.58
2023-03-19T21:27:53.035Z,58.49
2023-03-19T21:32:57.039Z,58.44
2023-03-19T21:38:02.320Z,58.52
2023-03-19T21:43:05.756Z,58.74
2023-03-19T21:48:30.173Z,58.95
2023-03-19T21:53:35.751Z,58.85
2023-03-19T21:58:52.526Z,59.16
2023-03-19T22:03:57.914Z,59.53
2023-03-19T22:09:01.629Z,59.80
2023-03-19T22:14:20.020Z,59.74
2023-03-19T22:19:26.276Z,59.62
2023-03-19T22:24:29.177Z,59.56
2023-03-19T22:29:33.448Z,59.48
2023-03-19T22:34:35.767Z,59.58
2023-03-19T22:39:37.988Z,59.81
2023-03-19T22:44:41.587Z,60.16
2023-03-19T22:50:17.268Z,60.59
2023-03-19T22:55:23.778Z,60.78
2023-03-19T23:00:28.803Z,60.97
2023-03-19T23:05:37.041Z,61.24
2023-03-19T23:10:49.049Z,61.43
2023-03-19T23:15:56.906Z,61.47
2023-03-19T23:20:59.874Z,61.68
2023-03-19T23:26:04.706Z,61.82
2023-03-19T23:31:10.207Z,62.06
2023-03-19T23:36:17.174Z,62.18
2023-03-19T23:41:26.470Z,62.16
2023-03-19T23:46:34.628Z,63.26
2023-03-19T23:51:37.293Z,62.62
2023-03-19T23:56:49.305Z,63.77
